x

Victorville, Southern California Logistics Airport Weather Station

6:15am - Thu 27th Apr 2017 All times are PDT. -7 hours from GMT.

  • Wind
    23mph, 31mph gusts
  • Air Temp 55°f
  • Sea Pressure 1010.2mb
  • Victorville, Southern California Logistics Airport
  • Victorville, Southern California Logistics Airport

More Historic Weather Station data

Upgrade to MSW Pro to gain access to the past 30 days of data for over 8000 Wavebouys and Weather Stations around the globe.

Join Pro

Comparision Forecast

View Surf forecast
   
Thu 04/27 6:15am 23 31 mph 1010.2mb 55f
5:55am 16 22 mph 1010.2mb 55f
5:15am 22 28 mph 1009.8mb 55f
4:55am 18 23 mph 1010.2mb 57f
4:15am 15 25 mph 1010.8mb 57f
3:55am 20 28 mph 1010.5mb 57f
3:15am 22 35 mph 1009.8mb 57f
2:55am 30 43 mph 1009.5mb 59f
2:15am 25 37 mph 1009.5mb 61f
1:55am 24 29 mph 1009.8mb 61f
1:15am 22 27 mph 1010.5mb 61f
12:55am 20 28 mph 1010.8mb 61f
12:15am 27 40 mph 1010.8mb 63f
Wed 04/26 11:55pm 27 36 mph 1010.8mb 63f
11:15pm 31 38 mph 1010.5mb 63f
10:55pm 28 35 mph 1010.8mb 63f
10:15pm 20 29 mph 1011.2mb 63f
9:55pm 24 35 mph 1010.8mb 63f
9:15pm 30 40 mph 1010.2mb 63f
8:55pm 24 30 mph 1011.2mb 63f
8:15pm 25 31 mph 1010.5mb 63f
7:55pm 25 35 mph 1010.2mb 64f
7:15pm 27 36 mph 1010.8mb 64f
6:55pm 28 41 mph 1011.2mb 66f
6:15pm 25 37 mph 1011.2mb 66f
5:55pm 27 37 mph 1011.2mb 68f
5:15pm 27 37 mph 1011.2mb 70f
4:55pm 29 39 mph 1011.2mb 70f
4:15pm 25 39 mph 1010.8mb 72f
3:55pm 31 43 mph 1010.8mb 72f
3:15pm 25 41 mph 1011.5mb 73f
2:55pm 37 44 mph 1011.2mb 72f
2:15pm 27 36 mph 1012.5mb 72f
1:55pm 25 32 mph 1012.9mb 73f
1:15pm 15 25 mph 1013.2mb 73f
12:55pm 22 29 mph 1013.5mb 73f
12:15pm 17 27 mph 1014.2mb 73f
11:55am 18 30 mph 1014.2mb 70f
11:15am 20 30 mph 1014.6mb 70f
10:55am 20 27 mph 1014.2mb 68f
10:15am 18
mph
1014.2mb 64f
9:55am 17 25 mph 1014.6mb 63f
9:15am 15 24 mph 1014.9mb 61f
8:55am 16 20 mph 1014.9mb 57f
8:15am 17 23 mph 1013.9mb 55f
7:55am 15 20 mph 1014.6mb 55f
7:15am 13
mph
1014.2mb 55f
6:55am 8
mph
1014.2mb 55f
6:15am  -  mph 1013.9mb 55f
5:55am  -  mph 1013.9mb 54f
5:15am  -  mph 1013.9mb 52f
4:55am 3
mph
1013.9mb 52f
4:15am  -  mph 1013.9mb 52f
3:55am 9
mph
1014.2mb 54f
3:15am 10
mph
1014.6mb 52f
2:55am 13 17 mph 1014.6mb 52f
2:15am 13
mph
1014.9mb 54f
1:55am 15 21 mph 1014.9mb 54f
1:15am 12 16 mph 1015.2mb 54f
12:55am 9
mph
1015.2mb 54f
12:15am 13 21 mph 1015.6mb 54f
Tue 04/25 11:55pm 15 18 mph 1015.6mb 54f
11:15pm 8
mph
1015.6mb 54f
10:55pm 7
mph
1015.6mb 54f
10:15pm 9
mph
1015.2mb 55f
9:55pm 13 16 mph 1015.2mb 55f
9:15pm 14
mph
1014.6mb 55f
8:55pm 16
mph
1014.2mb 55f
8:15pm 15
mph
1014.2mb 57f
7:55pm 16 21 mph 1013.9mb 57f
7:15pm 21 28 mph 1013.2mb 61f
6:55pm 20 24 mph 1013.2mb 61f
6:15pm 21 27 mph 1012.9mb 63f
5:55pm 17 25 mph 1012.9mb 63f
5:15pm 20 28 mph 1012.5mb 64f
4:55pm 29 39 mph 1011.2mb 70f
4:15pm 23 30 mph 1012.5mb 64f
3:55pm 21 28 mph 1012.5mb 66f
3:15pm 22 28 mph 1012.9mb 66f
2:55pm 20 28 mph 1012.9mb 66f
2:15pm 20 28 mph 1013.2mb 64f
1:55pm 22 27 mph 1013.2mb 64f
1:15pm 20 27 mph 1013.2mb 63f
12:55pm 21 27 mph 1013.9mb 63f
12:15pm 15 23 mph 1014.9mb 63f
11:55am 17 22 mph 1014.2mb 61f
11:15am 18 24 mph 1013.9mb 61f
10:55am 18 25 mph 1013.9mb 61f
10:15am 20 28 mph 1013.5mb 59f
9:55am 18 27 mph 1013.5mb 57f
9:15am 21 29 mph 1012.9mb 55f
8:55am 20 28 mph 1012.9mb 55f
8:15am 20 28 mph 1012.9mb 54f
7:55am 20 24 mph 1012.5mb 52f
7:15am 3
mph
1012.5mb 50f
6:55am 17 23 mph 1011.5mb 50f
6:15am 8
mph
1011.5mb 50f
5:55am 3 18 mph 1011.2mb 48f
5:15am 28 38 mph 1009.5mb 50f
4:55am 32 39 mph 1009.8mb 50f
4:15am 23 33 mph 1010.2mb 50f
3:55am 22 31 mph 1010.2mb 50f
3:15am 25 37 mph 1010.2mb 52f
2:55am 29 36 mph 1009.5mb 52f
2:15am 23 41 mph 1010.8mb 52f
1:55am 29 39 mph 1010.2mb 52f
1:15am 28 39 mph 1010.2mb 52f
12:55am 30 41 mph 1009.8mb 54f
12:15am 28 43 mph 1009.8mb 54f
Mon 04/24 11:55pm 33 41 mph 1009.5mb 55f
11:15pm 32 37 mph 1010.2mb 55f
10:55pm 24 32 mph 1010.5mb 55f
10:15pm 21 27 mph 1011.2mb 55f
9:55pm 21 33 mph 1011.2mb 55f
9:15pm 24 33 mph 1011.2mb 57f
8:55pm 28 41 mph 1010.5mb 57f
8:15pm 33 40 mph 1009.8mb 59f
7:55pm 31 45 mph 1010.2mb 59f
7:15pm 33 43 mph 1009.8mb 61f
6:55pm 30 37 mph 1010.2mb 63f
6:15pm 28 38 mph 1010.2mb 63f
5:55pm 30 41 mph 1010.2mb 64f
5:15pm 30 39 mph 1010.5mb 66f
4:55pm 32 41 mph 1010.5mb 64f
4:15pm 25 37 mph 1011.2mb 68f
3:55pm 33 40 mph 1010.8mb 68f
3:15pm 32 45 mph 1010.8mb 70f
2:55pm 30 38 mph 1011.2mb 70f
2:15pm 29 38 mph 1011.9mb 72f
1:55pm 29 38 mph 1012.2mb 70f
1:15pm 24 33 mph 1012.9mb 68f
12:55pm 25 35 mph 1012.9mb 70f
12:15pm 25 35 mph 1013.2mb 66f
11:55am 27 31 mph 1013.2mb 66f
11:15am 25 32 mph 1013.2mb 63f
10:55am 27 33 mph 1013.5mb 61f
10:15am 29 33 mph 1013.5mb 59f
9:55am 29 37 mph 1012.9mb 59f
9:15am 27 32 mph 1012.9mb 61f
8:55am 25 36 mph 1012.5mb 59f
8:15am 25 35 mph 1012.2mb 55f
7:55am 24 35 mph 1011.9mb 55f
7:15am 25 35 mph 1011.5mb 54f
6:55am 25 33 mph 1011.5mb 54f
6:15am 17 25 mph 1011.2mb 52f
5:55am 20 25 mph 1011.5mb 52f
5:15am 23 30 mph 1011.2mb 52f
4:55am 14 24 mph 1011.2mb 52f
4:15am 8
mph
1011.9mb 54f
3:55am  -  mph 1011.5mb 54f
3:15am 7
mph
1010.5mb 54f
2:55am 9 20 mph 1010.2mb 55f
2:15am 23 35 mph 1010.5mb 55f
1:55am 16 21 mph 1011.2mb 55f
1:15am 14
mph
1011.5mb 55f
12:55am 16 27 mph 1011.2mb 55f
12:15am 18 23 mph 1011.2mb 55f
Sun 04/23 11:55pm 18 24 mph 1011.9mb 57f
11:15pm 21 30 mph 1012.2mb 57f
10:55pm 21 28 mph 1011.9mb 57f
10:15pm 16 23 mph 1012.2mb 57f
9:55pm 16 25 mph 1012.2mb 57f
9:15pm 21 30 mph 1011.2mb 59f
8:55pm 20 30 mph 1011.2mb 61f
8:15pm 23 31 mph 1010.8mb 63f
7:55pm 16
mph
1010.8mb 64f
7:15pm 23 31 mph 1010.2mb 66f
6:55pm 21 30 mph 1010.5mb 70f
6:15pm 17 32 mph 1009.8mb 73f
5:55pm 21 32 mph 1009.8mb 73f
5:15pm 25 32 mph 1009.8mb 75f
4:55pm 22 31 mph 1009.5mb 79f
4:15pm 21 32 mph 1009.8mb 79f
3:55pm 24 35 mph 1009.8mb 81f
3:15pm 22 33 mph 1010.2mb 81f
2:55pm 21 31 mph 1010.5mb 82f
2:15pm 13 28 mph 1010.5mb 82f
1:55pm 18 24 mph 1010.5mb 82f